createdAt,value
2023-09-08T00:02:30.263Z,17.47
2023-09-08T00:04:57.328Z,17.62
2023-09-08T00:07:24.129Z,17.69
2023-09-08T00:09:50.888Z,17.64
2023-09-08T00:12:17.938Z,17.89
2023-09-08T00:14:44.979Z,17.53
2023-09-08T00:17:11.827Z,17.57
2023-09-08T00:19:39.182Z,17.81
2023-09-08T00:22:07.563Z,17.51
2023-09-08T00:24:35.071Z,17.54
2023-09-08T00:27:01.924Z,17.73
2023-09-08T00:29:28.607Z,17.59
2023-09-08T00:31:55.241Z,17.80
2023-09-08T00:34:21.799Z,17.48
2023-09-08T00:36:57.831Z,17.40
2023-09-08T00:39:24.472Z,17.31
2023-09-08T00:41:51.054Z,17.36
2023-09-08T00:44:17.565Z,17.51
2023-09-08T00:46:44.222Z,17.37
2023-09-08T00:49:10.802Z,17.69
2023-09-08T00:51:39.226Z,17.19
2023-09-08T00:54:07.552Z,17.29
2023-09-08T00:56:35.106Z,17.36
2023-09-08T00:59:03.641Z,17.24
2023-09-08T01:01:30.510Z,17.25
2023-09-08T01:03:57.087Z,17.32
2023-09-08T01:06:24.838Z,17.35
2023-09-08T01:08:51.912Z,17.29
2023-09-08T01:11:21.029Z,17.15
2023-09-08T01:13:47.827Z,17.13
2023-09-08T01:16:16.121Z,17.40
2023-09-08T01:18:42.909Z,17.22
2023-09-08T01:21:28.199Z,17.24
2023-09-08T01:24:09.345Z,17.08
2023-09-08T01:26:41.858Z,16.95
2023-09-08T01:29:10.380Z,17.02
2023-09-08T01:31:40.340Z,16.97
2023-09-08T01:34:08.360Z,17.07
2023-09-08T01:36:36.286Z,17.14
2023-09-08T01:39:04.099Z,17.09
2023-09-08T01:41:36.725Z,17.14
2023-09-08T01:44:09.418Z,17.12
2023-09-08T01:46:36.209Z,17.01
2023-09-08T01:49:02.878Z,17.10
2023-09-08T01:51:29.669Z,17.17
2023-09-08T01:53:56.171Z,17.37
2023-09-08T01:56:24.169Z,16.95
2023-09-08T01:58:50.772Z,17.17
2023-09-08T02:01:17.649Z,17.20
2023-09-08T02:03:44.285Z,17.12
2023-09-08T02:06:10.824Z,17.07
2023-09-08T02:08:37.685Z,17.06
2023-09-08T02:11:04.352Z,17.13
2023-09-08T02:13:30.926Z,17.07
2023-09-08T02:15:57.605Z,17.09
2023-09-08T02:18:26.056Z,17.37
2023-09-08T02:20:52.732Z,16.80
2023-09-08T02:23:19.385Z,16.90
2023-09-08T02:25:46.090Z,16.86
2023-09-08T02:28:12.665Z,17.02
2023-09-08T02:46:42.128Z,15.95
2023-09-08T02:49:08.962Z,16.23
2023-09-08T02:51:35.522Z,16.51
2023-09-08T02:54:02.336Z,16.47
2023-09-08T02:56:28.944Z,16.55
2023-09-08T02:58:55.607Z,16.40
2023-09-08T03:01:22.360Z,16.50
2023-09-08T03:03:50.035Z,16.74
2023-09-08T03:06:20.335Z,16.34
2023-09-08T03:08:46.987Z,16.44
2023-09-08T03:11:14.381Z,16.49
2023-09-08T03:13:43.395Z,16.45
2023-09-08T03:16:12.027Z,16.53
2023-09-08T03:18:39.425Z,16.59
2023-09-08T03:21:12.924Z,16.61
2023-09-08T03:23:40.888Z,16.51
2023-09-08T03:26:08.514Z,16.53
2023-09-08T03:28:37.062Z,16.44
2023-09-08T03:31:07.556Z,16.39
2023-09-08T03:33:34.574Z,16.45
2023-09-08T03:36:01.497Z,16.50
2023-09-08T03:38:28.398Z,16.49
2023-09-08T03:40:55.138Z,16.63
2023-09-08T03:43:21.700Z,16.76
2023-09-08T03:45:48.733Z,16.52
2023-09-08T03:48:15.491Z,16.31
2023-09-08T03:50:43.242Z,16.56
2023-09-08T03:53:09.956Z,16.21
2023-09-08T03:55:36.454Z,16.50
2023-09-08T03:58:03.037Z,16.21
2023-09-08T04:00:31.229Z,16.22
2023-09-08T04:02:58.211Z,16.32
2023-09-08T04:05:25.116Z,16.23
2023-09-08T04:07:51.862Z,16.16
2023-09-08T04:10:18.440Z,16.44
2023-09-08T04:12:45.716Z,16.03
2023-09-08T04:15:12.456Z,16.08
2023-09-08T04:17:39.160Z,16.19
2023-09-08T04:20:07.656Z,15.94
2023-09-08T04:22:34.915Z,15.94
2023-09-08T04:25:02.115Z,15.92
2023-09-08T04:27:28.797Z,16.08
2023-09-08T04:29:55.482Z,16.19
2023-09-08T04:32:22.073Z,16.19
2023-09-08T04:34:50.436Z,15.91
2023-09-08T04:45:04.886Z,15.95
2023-09-08T04:47:31.692Z,16.01
2023-09-08T04:49:58.477Z,16.05
2023-09-08T04:52:27.105Z,15.86
2023-09-08T04:54:56.534Z,15.77
2023-09-08T04:57:23.972Z,15.93
2023-09-08T04:59:51.282Z,15.89
2023-09-08T05:02:19.695Z,15.94
2023-09-08T05:04:46.772Z,16.02
2023-09-08T05:07:14.659Z,16.09
2023-09-08T05:09:41.663Z,16.28
2023-09-08T05:12:08.377Z,16.17
2023-09-08T05:14:35.296Z,15.96
2023-09-08T05:17:01.868Z,16.18
2023-09-08T05:19:28.686Z,15.88
2023-09-08T05:21:56.192Z,16.15
2023-09-08T05:24:22.943Z,16.01
2023-09-08T05:26:49.479Z,16.12
2023-09-08T05:29:16.288Z,15.74
2023-09-08T05:31:45.827Z,16.24
2023-09-08T05:34:12.425Z,15.88
2023-09-08T05:36:42.187Z,16.07
2023-09-08T05:39:18.661Z,15.95
2023-09-08T05:42:01.178Z,16.24
2023-09-08T05:44:27.908Z,16.08
2023-09-08T05:47:01.073Z,16.01
2023-09-08T05:49:27.963Z,16.31
2023-09-08T05:51:54.730Z,16.21
2023-09-08T05:54:21.251Z,16.47
2023-09-08T05:56:47.818Z,16.66
2023-09-08T05:59:30.507Z,16.52
2023-09-08T06:01:57.172Z,16.59
2023-09-08T06:04:23.977Z,16.60
2023-09-08T06:06:50.906Z,16.82
2023-09-08T06:09:17.902Z,16.87
2023-09-08T06:11:44.475Z,16.92
2023-09-08T06:14:10.967Z,17.12
2023-09-08T06:16:38.640Z,17.02
2023-09-08T06:19:05.340Z,17.26
2023-09-08T06:21:32.079Z,17.09
2023-09-08T06:23:58.728Z,17.27
2023-09-08T06:26:25.569Z,17.02
2023-09-08T06:28:52.052Z,17.34
2023-09-08T06:31:19.020Z,17.26
2023-09-08T06:33:45.905Z,17.48
2023-09-08T06:36:12.522Z,17.40
2023-09-08T06:38:39.080Z,17.67
2023-09-08T06:41:12.574Z,17.73
2023-09-08T06:43:39.418Z,17.85
2023-09-08T06:46:06.032Z,17.92
2023-09-08T06:48:32.548Z,18.01
2023-09-08T06:50:59.991Z,18.14
2023-09-08T06:53:26.684Z,18.15
2023-09-08T06:55:53.319Z,18.38
2023-09-08T06:58:19.787Z,18.25
2023-09-08T07:00:46.387Z,18.39
2023-09-08T07:03:13.153Z,18.49
2023-09-08T07:05:42.902Z,18.44
2023-09-08T07:08:09.659Z,18.67
2023-09-08T07:10:36.404Z,18.78
2023-09-08T07:13:03.142Z,18.82
2023-09-08T07:15:29.595Z,18.91
2023-09-08T07:17:56.372Z,18.78
2023-09-08T07:20:23.217Z,18.78
2023-09-08T07:22:49.697Z,18.91
2023-09-08T07:25:16.337Z,19.17
2023-09-08T07:27:42.938Z,19.12
2023-09-08T07:30:09.921Z,19.43
2023-09-08T07:32:36.470Z,19.34
2023-09-08T07:35:03.142Z,19.30
2023-09-08T07:37:29.578Z,19.59
2023-09-08T07:39:56.293Z,19.48
2023-09-08T07:42:26.786Z,19.65
2023-09-08T07:44:53.321Z,19.65
2023-09-08T07:47:19.766Z,19.89
2023-09-08T07:49:48.781Z,20.18
2023-09-08T07:52:16.330Z,20.06
2023-09-08T07:54:45.892Z,20.07
2023-09-08T07:57:14.635Z,20.25
2023-09-08T07:59:41.172Z,20.53
2023-09-08T08:02:07.742Z,20.43
2023-09-08T08:04:34.309Z,20.57
2023-09-08T08:07:00.848Z,20.87
2023-09-08T08:09:27.317Z,20.71
2023-09-08T08:11:53.930Z,20.88
2023-09-08T08:14:20.453Z,21.12
2023-09-08T08:16:46.943Z,21.07
2023-09-08T08:29:08.549Z,21.24
2023-09-08T08:32:03.040Z,21.53
2023-09-08T08:34:32.863Z,21.52
2023-09-08T08:37:14.279Z,21.57
2023-09-08T08:39:48.261Z,21.62
2023-09-08T08:46:07.824Z,21.72
2023-09-08T08:48:42.860Z,21.36
2023-09-08T08:53:40.837Z,21.75
2023-09-08T08:56:49.678Z,21.90
2023-09-08T08:59:19.614Z,22.14
2023-09-08T09:01:51.181Z,21.84
2023-09-08T09:04:18.822Z,21.88
2023-09-08T09:06:48.517Z,22.06
2023-09-08T09:09:16.212Z,22.14
2023-09-08T09:11:43.185Z,22.25
2023-09-08T09:14:10.309Z,22.49
2023-09-08T09:16:41.818Z,22.53
2023-09-08T09:19:09.968Z,22.53
2023-09-08T09:25:01.005Z,22.61
2023-09-08T09:27:32.318Z,22.56
2023-09-08T09:30:02.181Z,22.73
2023-09-08T09:35:13.271Z,22.79
2023-09-08T09:41:19.542Z,22.92
2023-09-08T09:43:46.363Z,22.88
2023-09-08T09:46:13.057Z,23.21
2023-09-08T09:48:42.462Z,23.37
2023-09-08T09:51:49.243Z,23.56
2023-09-08T09:54:46.585Z,23.54
2023-09-08T09:57:13.987Z,23.79
2023-09-08T10:00:03.129Z,23.68
2023-09-08T10:02:32.010Z,23.89
2023-09-08T10:05:12.891Z,23.68
2023-09-08T10:07:40.982Z,23.99
2023-09-08T10:12:56.770Z,24.00
2023-09-08T10:15:28.455Z,24.27
2023-09-08T10:18:05.986Z,24.17
2023-09-08T10:20:34.884Z,24.42
2023-09-08T10:23:17.163Z,24.74
2023-09-08T10:26:52.660Z,24.32
2023-09-08T10:29:54.734Z,24.33
2023-09-08T10:32:38.013Z,24.45
2023-09-08T10:38:58.932Z,25.17
2023-09-08T10:41:25.539Z,24.97
2023-09-08T10:44:09.045Z,25.06
2023-09-08T10:46:36.461Z,24.99
2023-09-08T10:49:18.378Z,25.18
2023-09-08T10:51:46.084Z,25.15
2023-09-08T10:54:13.044Z,25.19
2023-09-08T10:56:50.885Z,25.14
2023-09-08T10:59:17.807Z,25.05
2023-09-08T11:01:44.384Z,25.06
2023-09-08T11:04:14.448Z,25.52
2023-09-08T11:06:58.847Z,25.16
2023-09-08T11:09:25.381Z,25.48
2023-09-08T11:11:51.990Z,25.44
2023-09-08T11:14:18.740Z,25.51
2023-09-08T11:16:45.363Z,25.80
2023-09-08T11:19:28.519Z,25.91
2023-09-08T11:21:55.080Z,25.98
2023-09-08T11:24:27.742Z,25.81
2023-09-08T11:27:04.306Z,25.50
2023-09-08T11:29:30.818Z,25.87
2023-09-08T11:31:57.212Z,26.09
2023-09-08T11:34:23.893Z,25.95
2023-09-08T11:36:50.460Z,26.17
2023-09-08T11:39:16.950Z,26.21
2023-09-08T11:41:43.419Z,25.95
2023-09-08T11:44:10.050Z,25.81
2023-09-08T11:46:36.717Z,25.95
2023-09-08T11:49:05.457Z,26.36
2023-09-08T11:51:31.939Z,26.14
2023-09-08T11:53:58.480Z,26.04
2023-09-08T11:56:25.294Z,25.69
2023-09-08T11:58:52.410Z,26.05
2023-09-08T12:01:19.934Z,26.24
2023-09-08T12:04:22.943Z,26.25
2023-09-08T12:06:51.005Z,26.25
2023-09-08T12:09:18.010Z,26.40
2023-09-08T12:11:44.854Z,26.41
2023-09-08T12:14:13.963Z,26.47
2023-09-08T12:16:41.599Z,26.43
2023-09-08T12:19:09.266Z,26.23
2023-09-08T12:21:55.515Z,26.65
2023-09-08T12:24:50.244Z,26.94
2023-09-08T12:27:18.086Z,26.63
2023-09-08T12:29:55.434Z,26.70
2023-09-08T12:32:23.181Z,26.71
2023-09-08T12:34:49.688Z,26.88
2023-09-08T12:37:20.154Z,27.26
2023-09-08T12:39:46.684Z,27.01
2023-09-08T12:42:13.645Z,26.61
2023-09-08T12:44:40.215Z,26.65
2023-09-08T12:47:07.302Z,26.71
2023-09-08T12:49:33.817Z,26.43
2023-09-08T12:52:00.338Z,26.48
2023-09-08T12:54:27.219Z,26.61
2023-09-08T12:56:54.064Z,26.37
2023-09-08T12:59:20.617Z,26.73
2023-09-08T13:01:47.086Z,26.98
2023-09-08T13:04:23.276Z,27.21
2023-09-08T13:06:50.746Z,26.75
2023-09-08T13:09:17.766Z,27.04
2023-09-08T13:11:44.982Z,26.78
2023-09-08T13:14:11.597Z,27.09
2023-09-08T13:16:38.266Z,27.09
2023-09-08T13:19:05.116Z,26.94
2023-09-08T13:21:31.990Z,26.79
2023-09-08T13:24:07.829Z,27.14
2023-09-08T13:29:39.938Z,27.58
2023-09-08T13:32:07.101Z,27.29
2023-09-08T13:38:33.395Z,26.71
2023-09-08T13:41:08.933Z,26.91
2023-09-08T13:43:56.019Z,26.98
2023-09-08T13:46:23.150Z,26.97
2023-09-08T13:48:50.704Z,26.91
2023-09-08T13:51:28.095Z,27.49
2023-09-08T13:58:09.420Z,27.50
2023-09-08T14:00:39.562Z,27.22
2023-09-08T14:09:54.590Z,27.16
2023-09-08T14:12:33.334Z,27.13
2023-09-08T14:15:08.141Z,27.39
2023-09-08T14:22:11.264Z,27.78
2023-09-08T14:24:48.513Z,27.69
2023-09-08T14:27:15.491Z,27.36
2023-09-08T14:29:45.395Z,27.41
2023-09-08T14:36:21.107Z,27.41
2023-09-08T14:39:28.397Z,27.05
2023-09-08T14:41:59.694Z,27.37
2023-09-08T14:44:40.828Z,27.22
2023-09-08T14:47:29.487Z,27.10
2023-09-08T14:53:43.111Z,26.88
2023-09-08T14:56:10.077Z,26.68
2023-09-08T14:59:05.803Z,26.82
2023-09-08T15:01:35.082Z,26.73
2023-09-08T15:04:02.044Z,26.79
2023-09-08T15:06:32.489Z,26.94
2023-09-08T15:09:00.400Z,27.14
2023-09-08T15:11:27.955Z,26.87
2023-09-08T15:13:58.662Z,26.90
2023-09-08T15:16:25.352Z,27.27
2023-09-08T15:19:18.107Z,26.72
2023-09-08T15:21:44.929Z,26.94
2023-09-08T15:24:11.796Z,26.55
2023-09-08T15:26:41.756Z,27.17
2023-09-08T15:29:09.814Z,26.83
2023-09-08T15:31:50.098Z,26.70
2023-09-08T15:34:27.080Z,26.59
2023-09-08T15:36:54.139Z,26.49
2023-09-08T15:39:23.626Z,26.43
2023-09-08T15:41:50.895Z,26.20
2023-09-08T15:44:29.694Z,26.47
2023-09-08T15:47:36.515Z,26.43
2023-09-08T15:50:20.195Z,26.42
2023-09-08T16:00:34.115Z,26.20
2023-09-08T16:05:59.695Z,25.72
2023-09-08T16:08:27.127Z,25.71
2023-09-08T16:10:54.574Z,25.72
2023-09-08T16:13:21.989Z,25.64
2023-09-08T16:15:48.881Z,25.72
2023-09-08T16:18:16.030Z,25.78
2023-09-08T16:20:51.482Z,25.29
2023-09-08T16:23:18.939Z,25.39
2023-09-08T16:28:34.284Z,25.25
2023-09-08T16:31:16.164Z,25.23
2023-09-08T16:33:46.180Z,24.76
2023-09-08T16:36:17.906Z,24.86
2023-09-08T16:39:12.868Z,24.51
2023-09-08T16:41:43.894Z,24.59
2023-09-08T16:44:14.273Z,24.09
2023-09-08T16:46:41.241Z,24.01
2023-09-08T17:09:40.277Z,23.69
2023-09-08T17:12:08.364Z,23.37
2023-09-08T17:14:36.275Z,23.46
2023-09-08T17:17:05.381Z,23.43
2023-09-08T17:19:32.264Z,23.49
2023-09-08T17:22:01.250Z,23.40
2023-09-08T17:24:28.656Z,23.25
2023-09-08T17:26:56.558Z,23.24
2023-09-08T17:29:23.089Z,23.12
2023-09-08T17:31:49.538Z,23.09
2023-09-08T17:34:21.182Z,22.83
2023-09-08T17:36:57.123Z,22.71
2023-09-08T17:39:24.710Z,22.83
2023-09-08T17:41:51.245Z,22.71
2023-09-08T17:44:21.714Z,22.72
2023-09-08T17:46:50.105Z,22.59
2023-09-08T17:49:16.726Z,22.55
2023-09-08T17:51:43.134Z,22.58
2023-09-08T17:54:09.719Z,22.44
2023-09-08T17:56:36.170Z,22.45
2023-09-08T17:59:02.625Z,22.12
2023-09-08T18:01:29.285Z,22.16
2023-09-08T18:03:56.068Z,22.08
2023-09-08T18:06:22.664Z,22.10
2023-09-08T18:08:52.707Z,22.04
2023-09-08T18:11:22.040Z,21.97
2023-09-08T18:13:49.657Z,21.91
2023-09-08T18:16:16.507Z,21.65
2023-09-08T18:18:44.813Z,21.57
2023-09-08T18:21:16.116Z,21.67
2023-09-08T18:23:42.746Z,21.76
2023-09-08T18:26:09.210Z,21.77
2023-09-08T18:28:36.078Z,21.67
2023-09-08T18:31:06.002Z,21.45
2023-09-08T18:33:32.574Z,21.42
2023-09-08T18:35:59.039Z,21.62
2023-09-08T18:38:26.742Z,21.28
2023-09-08T18:40:53.488Z,21.39
2023-09-08T18:43:20.101Z,21.29
2023-09-08T18:45:46.837Z,21.46
2023-09-08T18:48:13.613Z,21.12
2023-09-08T18:50:40.133Z,21.27
2023-09-08T18:53:06.841Z,21.26
2023-09-08T18:55:36.133Z,21.27
2023-09-08T18:58:03.784Z,21.13
2023-09-08T19:00:31.040Z,21.18
2023-09-08T19:02:59.864Z,21.22
2023-09-08T19:05:26.852Z,21.02
2023-09-08T19:07:53.580Z,21.12
2023-09-08T19:10:20.289Z,20.98
2023-09-08T19:12:47.016Z,21.10
2023-09-08T19:15:13.832Z,21.11
2023-09-08T19:17:40.755Z,21.10
2023-09-08T19:20:10.674Z,20.99
2023-09-08T19:22:37.740Z,20.86
2023-09-08T19:25:10.692Z,20.92
2023-09-08T19:27:37.610Z,21.03
2023-09-08T19:30:08.006Z,20.99
2023-09-08T19:32:34.661Z,20.96
2023-09-08T19:35:01.435Z,20.95
2023-09-08T19:37:27.997Z,20.72
2023-09-08T19:39:54.448Z,20.80
2023-09-08T19:42:20.972Z,20.68
2023-09-08T19:44:47.480Z,20.69
2023-09-08T19:47:14.178Z,20.53
2023-09-08T19:49:42.915Z,20.59
2023-09-08T19:52:13.711Z,20.43
2023-09-08T19:54:41.266Z,20.35
2023-09-08T19:57:07.735Z,20.47
2023-09-08T19:59:36.675Z,20.37
2023-09-08T20:02:03.211Z,20.43
2023-09-08T20:04:29.689Z,20.40
2023-09-08T20:06:58.368Z,20.13
2023-09-08T20:09:25.643Z,20.20
2023-09-08T20:11:52.716Z,20.28
2023-09-08T20:14:19.638Z,20.07
2023-09-08T20:16:46.138Z,20.10
2023-09-08T20:19:15.731Z,20.06
2023-09-08T20:21:42.256Z,20.03
2023-09-08T20:24:08.912Z,19.92
2023-09-08T20:26:35.387Z,19.93
2023-09-08T20:29:01.922Z,19.83
2023-09-08T20:31:28.436Z,19.77
2023-09-08T20:33:55.221Z,19.72
2023-09-08T20:36:21.678Z,19.83
2023-09-08T20:38:48.179Z,19.71
2023-09-08T20:41:14.757Z,19.71
2023-09-08T20:43:41.577Z,19.78
2023-09-08T20:46:08.472Z,19.52
2023-09-08T20:48:37.314Z,19.58
2023-09-08T20:51:05.999Z,19.60
2023-09-08T20:53:33.882Z,19.71
2023-09-08T20:56:00.618Z,19.70
2023-09-08T20:58:27.230Z,19.61
2023-09-08T21:00:57.382Z,19.63
2023-09-08T21:03:24.078Z,19.70
2023-09-08T21:05:51.146Z,19.63
2023-09-08T21:08:19.714Z,19.40
2023-09-08T21:10:46.866Z,19.46
2023-09-08T21:13:13.362Z,19.41
2023-09-08T21:15:39.944Z,19.33
2023-09-08T21:18:07.649Z,19.38
2023-09-08T21:20:37.252Z,19.41
2023-09-08T21:23:04.273Z,19.34
2023-09-08T21:25:32.142Z,19.22
2023-09-08T21:27:58.931Z,19.27
2023-09-08T21:30:25.439Z,19.26
2023-09-08T21:32:52.328Z,19.01
2023-09-08T21:35:19.175Z,18.96
2023-09-08T21:37:45.572Z,19.20
2023-09-08T21:40:12.439Z,18.98
2023-09-08T21:42:38.977Z,19.03
2023-09-08T21:45:07.655Z,18.90
2023-09-08T21:47:34.251Z,19.00
2023-09-08T21:50:00.737Z,18.96
2023-09-08T21:52:37.408Z,18.92
2023-09-08T21:55:05.514Z,18.90
2023-09-08T21:57:32.058Z,19.02
2023-09-08T21:59:58.584Z,18.94
2023-09-08T22:02:25.300Z,18.86
2023-09-08T22:04:52.191Z,18.74
2023-09-08T22:07:18.769Z,18.74
2023-09-08T22:09:45.245Z,18.78
2023-09-08T22:12:16.486Z,18.76
2023-09-08T22:14:42.960Z,18.74
2023-09-08T22:17:09.588Z,18.71
2023-09-08T22:19:36.000Z,18.65
2023-09-08T22:22:02.538Z,18.41
2023-09-08T22:24:29.481Z,18.60
2023-09-08T22:26:56.059Z,18.62
2023-09-08T22:29:23.495Z,18.43
2023-09-08T22:31:50.164Z,18.44
2023-09-08T22:34:16.763Z,18.59
2023-09-08T22:36:43.441Z,18.20
2023-09-08T22:39:12.649Z,18.38
2023-09-08T22:41:39.727Z,18.30
2023-09-08T22:44:06.694Z,18.31
2023-09-08T22:46:33.401Z,18.30
2023-09-08T22:48:59.869Z,18.37
2023-09-08T22:51:26.483Z,18.06
2023-09-08T22:53:53.367Z,18.12
2023-09-08T22:56:20.026Z,18.28
2023-09-08T22:58:46.562Z,18.20
2023-09-08T23:01:13.162Z,18.19
2023-09-08T23:03:39.724Z,18.29
2023-09-08T23:06:06.785Z,18.03
2023-09-08T23:08:33.231Z,18.18
2023-09-08T23:10:59.850Z,17.87
2023-09-08T23:13:26.287Z,18.04
2023-09-08T23:15:53.313Z,18.14
2023-09-08T23:18:20.220Z,18.13
2023-09-08T23:20:48.924Z,18.20
2023-09-08T23:23:15.760Z,18.10
2023-09-08T23:25:42.212Z,18.22
2023-09-08T23:28:08.709Z,18.13
2023-09-08T23:30:35.874Z,18.10
2023-09-08T23:33:02.512Z,18.07
2023-09-08T23:35:28.966Z,18.07
2023-09-08T23:37:55.652Z,17.80
2023-09-08T23:40:22.085Z,17.93
2023-09-08T23:42:48.538Z,17.94
2023-09-08T23:45:14.971Z,17.89
2023-09-08T23:47:41.518Z,18.01
2023-09-08T23:50:08.791Z,17.87
2023-09-08T23:52:35.285Z,17.90
2023-09-08T23:55:01.729Z,17.80
2023-09-08T23:57:28.278Z,17.82
2023-09-08T23:59:54.906Z,17.88
